createdAt,value
2023-03-22T00:01:31.124Z,6.13
2023-03-22T00:04:19.406Z,7.20
2023-03-22T00:07:07.772Z,7.57
2023-03-22T00:09:57.451Z,6.13
2023-03-22T00:12:45.754Z,5.77
2023-03-22T00:15:34.032Z,6.10
2023-03-22T00:18:22.371Z,5.77
2023-03-22T00:21:14.072Z,7.13
2023-03-22T00:24:02.324Z,6.60
2023-03-22T00:26:51.965Z,7.03
2023-03-22T00:29:40.374Z,5.80
2023-03-22T00:32:28.710Z,5.67
2023-03-22T00:35:16.944Z,6.80
2023-03-22T00:38:14.319Z,6.37
2023-03-22T00:41:09.983Z,4.80
2023-03-22T00:43:59.665Z,6.93
2023-03-22T00:46:48.139Z,4.80
2023-03-22T00:49:37.531Z,6.40
2023-03-22T00:52:25.832Z,5.80
2023-03-22T00:55:14.145Z,5.20
2023-03-22T00:58:04.773Z,7.00
2023-03-22T01:00:54.699Z,5.33
2023-03-22T01:03:44.361Z,5.57
2023-03-22T01:06:33.888Z,5.40
2023-03-22T01:09:23.980Z,6.33
2023-03-22T01:12:13.117Z,6.40
2023-03-22T01:15:01.425Z,5.33
2023-03-22T01:17:51.066Z,5.40
2023-03-22T01:20:39.785Z,5.23
2023-03-22T01:23:28.195Z,5.87
2023-03-22T01:26:16.502Z,5.43
2023-03-22T01:29:05.282Z,6.83
2023-03-22T01:31:53.714Z,4.87
2023-03-22T01:34:43.440Z,5.00
2023-03-22T01:37:32.699Z,5.77
2023-03-22T01:40:21.151Z,5.33
2023-03-22T01:43:14.968Z,5.70
2023-03-22T01:46:03.351Z,5.67
2023-03-22T01:48:53.356Z,5.10
2023-03-22T01:51:44.229Z,5.47
2023-03-22T01:54:36.973Z,4.93
2023-03-22T01:57:25.845Z,6.10
2023-03-22T02:00:19.080Z,6.53
2023-03-22T02:06:13.185Z,6.23
2023-03-22T02:09:03.514Z,6.50
2023-03-22T02:12:00.346Z,5.20
2023-03-22T02:14:59.227Z,7.37
2023-03-22T02:18:01.774Z,6.33
2023-03-22T02:21:22.273Z,5.10
2023-03-22T02:24:56.640Z,7.20
2023-03-22T02:28:05.948Z,6.20
2023-03-22T02:31:21.492Z,5.67
2023-03-22T02:34:43.925Z,6.50
2023-03-22T02:38:04.440Z,4.97
2023-03-22T02:40:57.490Z,5.20
2023-03-22T02:44:02.167Z,5.40
2023-03-22T02:47:01.340Z,5.37
2023-03-22T02:49:57.865Z,5.53
2023-03-22T02:52:51.956Z,5.70
2023-03-22T02:55:45.916Z,5.60
2023-03-22T02:58:39.423Z,6.60
2023-03-22T03:01:30.346Z,4.97
2023-03-22T03:04:22.040Z,5.80
2023-03-22T03:07:14.321Z,6.40
2023-03-22T03:10:03.475Z,5.17
2023-03-22T03:12:51.664Z,5.47
2023-03-22T03:15:44.039Z,5.50
2023-03-22T03:18:40.721Z,5.17
2023-03-22T03:21:35.705Z,5.10
2023-03-22T03:24:29.429Z,6.33
2023-03-22T03:27:23.496Z,5.90
2023-03-22T03:30:15.084Z,5.83
2023-03-22T03:33:10.683Z,5.47
2023-03-22T03:36:03.324Z,6.00
2023-03-22T03:38:54.415Z,5.70
2023-03-22T03:41:45.154Z,5.30
2023-03-22T03:44:36.615Z,5.50
2023-03-22T03:47:26.575Z,5.50
2023-03-22T03:50:17.802Z,5.80
2023-03-22T03:53:06.237Z,5.67
2023-03-22T03:55:54.442Z,6.53
2023-03-22T03:58:42.753Z,5.40
2023-03-22T04:01:31.449Z,5.10
2023-03-22T04:04:26.320Z,5.93
2023-03-22T04:07:16.476Z,5.20
2023-03-22T04:10:06.065Z,5.30
2023-03-22T04:12:54.357Z,5.40
2023-03-22T04:15:42.575Z,5.23
2023-03-22T04:18:30.937Z,5.63
2023-03-22T04:21:20.007Z,6.20
2023-03-22T04:24:11.242Z,6.20
2023-03-22T04:26:59.478Z,5.57
2023-03-22T04:29:51.156Z,5.50
2023-03-22T04:32:40.176Z,5.30
2023-03-22T04:35:28.854Z,5.63
2023-03-22T04:38:18.303Z,5.87
2023-03-22T04:41:08.701Z,8.53
2023-03-22T04:43:57.708Z,5.30
2023-03-22T04:46:46.105Z,5.83
2023-03-22T04:49:34.588Z,5.93
2023-03-22T04:52:22.963Z,6.50
2023-03-22T04:55:11.245Z,6.10
2023-03-22T04:58:00.892Z,6.13
2023-03-22T05:00:49.395Z,6.07
2023-03-22T05:03:38.377Z,5.77
2023-03-22T05:06:27.505Z,5.93
2023-03-22T05:09:16.256Z,6.10
2023-03-22T05:12:04.709Z,5.27
2023-03-22T05:14:54.334Z,6.23
2023-03-22T05:17:42.581Z,6.73
2023-03-22T05:20:30.857Z,6.33
2023-03-22T05:23:22.322Z,6.60
2023-03-22T05:26:11.098Z,5.43
2023-03-22T05:28:59.366Z,6.13
2023-03-22T05:31:49.074Z,6.40
2023-03-22T05:34:37.749Z,6.30
2023-03-22T05:37:26.226Z,6.23
2023-03-22T05:40:14.882Z,6.97
2023-03-22T05:43:03.178Z,5.67
2023-03-22T05:45:51.560Z,7.53
2023-03-22T05:48:42.085Z,5.50
2023-03-22T05:51:33.121Z,7.33
2023-03-22T05:54:21.374Z,6.80
2023-03-22T05:57:09.603Z,6.07
2023-03-22T05:59:58.272Z,5.43
2023-03-22T06:02:48.872Z,7.17
2023-03-22T06:05:38.708Z,7.60
2023-03-22T06:08:27.102Z,6.43
2023-03-22T06:11:15.702Z,7.30
2023-03-22T06:14:04.024Z,8.37
2023-03-22T06:16:53.032Z,6.20
2023-03-22T06:19:41.531Z,6.50
2023-03-22T06:22:33.603Z,7.53
2023-03-22T06:25:21.850Z,6.33
2023-03-22T06:28:10.024Z,7.30
2023-03-22T06:30:58.541Z,7.00
2023-03-22T06:33:46.811Z,6.97
2023-03-22T06:36:35.139Z,6.63
2023-03-22T06:39:25.376Z,8.00
2023-03-22T06:42:13.756Z,6.93
2023-03-22T06:45:02.106Z,7.38
2023-03-22T06:47:50.961Z,6.77
2023-03-22T06:50:44.097Z,6.73
2023-03-22T06:53:32.632Z,6.10
2023-03-22T06:56:22.394Z,6.37
2023-03-22T06:59:10.700Z,9.87
2023-03-22T07:02:00.391Z,7.30
2023-03-22T07:04:48.663Z,6.43
2023-03-22T07:07:36.969Z,7.80
2023-03-22T07:10:25.337Z,7.00
2023-03-22T07:13:15.217Z,7.13
2023-03-22T07:16:03.971Z,7.50
2023-03-22T07:18:52.329Z,7.67
2023-03-22T07:21:40.671Z,8.10
2023-03-22T07:24:29.076Z,7.70
2023-03-22T07:27:17.621Z,7.97
2023-03-22T07:30:09.838Z,10.07
2023-03-22T07:32:58.077Z,7.77
2023-03-22T07:35:46.419Z,7.50
2023-03-22T07:38:34.824Z,9.27
2023-03-22T07:41:24.176Z,9.37
2023-03-22T07:44:18.056Z,7.40
2023-03-22T07:47:08.035Z,8.10
2023-03-22T07:49:56.408Z,7.60
2023-03-22T07:52:46.178Z,7.87
2023-03-22T07:55:34.568Z,9.27
2023-03-22T07:58:23.007Z,8.88
2023-03-22T08:01:11.347Z,9.37
2023-03-22T08:04:00.946Z,9.33
2023-03-22T08:06:49.230Z,7.93
2023-03-22T08:09:37.588Z,9.10
2023-03-22T08:12:28.146Z,7.27
2023-03-22T08:15:16.596Z,9.17
2023-03-22T08:18:04.946Z,8.97
2023-03-22T08:20:59.379Z,7.43
2023-03-22T08:23:49.482Z,8.77
2023-03-22T08:26:39.463Z,6.90
2023-03-22T08:29:28.221Z,9.33
2023-03-22T08:32:16.928Z,7.80
2023-03-22T08:35:07.541Z,6.83
2023-03-22T08:37:57.780Z,7.87
2023-03-22T08:40:47.822Z,7.83
2023-03-22T08:43:36.099Z,6.07
2023-03-22T08:46:24.528Z,7.63
2023-03-22T08:49:12.935Z,8.40
2023-03-22T08:52:01.204Z,8.23
2023-03-22T08:54:52.567Z,6.33
2023-03-22T08:57:41.396Z,6.57
2023-03-22T09:00:42.276Z,7.27
2023-03-22T09:03:34.378Z,7.40
2023-03-22T09:06:22.810Z,9.10
2023-03-22T09:09:11.202Z,5.90
2023-03-22T09:12:02.301Z,6.70
2023-03-22T09:14:50.827Z,7.47
2023-03-22T09:17:39.614Z,6.90
2023-03-22T09:20:28.315Z,6.47
2023-03-22T09:23:17.085Z,5.10
2023-03-22T09:26:08.149Z,5.10
2023-03-22T09:28:57.898Z,5.33
2023-03-22T09:31:48.999Z,5.10
2023-03-22T09:34:37.418Z,5.50
2023-03-22T09:37:30.575Z,4.73
2023-03-22T09:40:19.568Z,4.40
2023-03-22T09:43:10.637Z,4.80
2023-03-22T09:46:01.219Z,5.60
2023-03-22T09:48:51.624Z,4.97
2023-03-22T09:51:42.195Z,4.53
2023-03-22T09:54:34.847Z,4.90
2023-03-22T09:57:33.571Z,6.07
2023-03-22T10:00:28.416Z,7.33
2023-03-22T10:03:30.585Z,4.73
2023-03-22T10:06:21.612Z,4.50
2023-03-22T10:09:15.919Z,4.27
2023-03-22T10:12:12.512Z,4.60
2023-03-22T10:15:06.920Z,5.30
2023-03-22T10:17:57.477Z,4.50
2023-03-22T10:20:54.114Z,3.10
2023-03-22T10:23:46.909Z,2.87
2023-03-22T10:26:39.528Z,3.55
2023-03-22T10:29:33.307Z,2.60
2023-03-22T10:32:28.140Z,2.60
2023-03-22T10:35:17.729Z,3.53
2023-03-22T10:38:10.584Z,2.80
2023-03-22T10:41:01.024Z,5.70
2023-03-22T10:43:53.101Z,5.73
2023-03-22T10:46:43.258Z,2.23
2023-03-22T10:49:35.969Z,2.13
2023-03-22T10:52:39.620Z,2.47
2023-03-22T10:55:29.777Z,2.43
2023-03-22T10:58:19.875Z,2.20
2023-03-22T11:01:11.066Z,2.70
2023-03-22T11:04:01.572Z,4.30
2023-03-22T11:06:54.756Z,3.30
2023-03-22T11:09:44.316Z,2.63
2023-03-22T11:12:39.007Z,2.47
2023-03-22T11:15:31.811Z,2.23
2023-03-22T11:18:21.220Z,2.20
2023-03-22T11:21:12.470Z,2.17
2023-03-22T11:24:05.946Z,2.13
2023-03-22T11:27:06.297Z,2.03
2023-03-22T11:29:59.957Z,2.10
2023-03-22T11:32:48.458Z,1.87
2023-03-22T11:35:38.448Z,2.00
2023-03-22T11:38:30.614Z,2.23
2023-03-22T11:41:24.479Z,2.23
2023-03-22T11:44:15.940Z,3.53
2023-03-22T11:47:09.257Z,2.13
2023-03-22T11:49:57.661Z,2.87
2023-03-22T11:52:49.035Z,2.50
2023-03-22T11:55:38.164Z,2.13
2023-03-22T11:58:28.865Z,2.60
2023-03-22T12:01:22.468Z,2.87
2023-03-22T12:04:18.842Z,2.67
2023-03-22T12:07:15.481Z,2.13
2023-03-22T12:10:09.334Z,1.90
2023-03-22T12:13:01.374Z,2.27
2023-03-22T12:15:54.077Z,2.20
2023-03-22T12:18:48.541Z,1.87
2023-03-22T12:21:38.682Z,2.30
2023-03-22T12:24:30.484Z,2.00
2023-03-22T12:27:24.213Z,4.43
2023-03-22T12:30:16.387Z,1.80
2023-03-22T12:33:07.881Z,3.80
2023-03-22T12:35:59.853Z,2.10
2023-03-22T12:38:53.231Z,2.87
2023-03-22T12:41:45.274Z,4.17
2023-03-22T12:44:39.285Z,1.90
2023-03-22T12:47:33.113Z,1.83
2023-03-22T12:50:24.249Z,2.53
2023-03-22T12:53:15.529Z,1.77
2023-03-22T12:56:06.109Z,1.77
2023-03-22T12:58:58.198Z,5.50
2023-03-22T13:01:52.594Z,2.00
2023-03-22T13:04:56.799Z,2.60
2023-03-22T13:07:54.112Z,1.77
2023-03-22T13:10:50.699Z,2.13
2023-03-22T13:13:46.659Z,2.00
2023-03-22T13:16:51.238Z,2.80
2023-03-22T13:19:52.479Z,1.47
2023-03-22T13:23:03.443Z,1.63
2023-03-22T13:26:04.428Z,1.63
2023-03-22T13:28:59.089Z,2.80
2023-03-22T13:31:56.131Z,1.60
2023-03-22T13:34:47.780Z,3.40
2023-03-22T13:37:45.280Z,4.40
2023-03-22T13:40:37.859Z,1.87
2023-03-22T13:43:30.459Z,4.03
2023-03-22T13:46:44.705Z,1.90
2023-03-22T13:49:49.953Z,1.63
2023-03-22T13:52:42.350Z,1.63
2023-03-22T13:55:48.276Z,1.80
2023-03-22T13:58:49.327Z,2.30
2023-03-22T14:01:47.613Z,1.47
2023-03-22T14:04:42.689Z,4.40
2023-03-22T14:07:39.003Z,2.27
2023-03-22T14:10:32.201Z,2.97
2023-03-22T14:13:28.892Z,2.00
2023-03-22T14:16:21.681Z,1.73
2023-03-22T14:19:19.756Z,1.53
